createdAt,value
2022-09-28T00:01:00.783Z,0.50
2022-09-28T00:03:28.207Z,0.40
2022-09-28T00:06:01.126Z,0.20
2022-09-28T00:08:28.406Z,0.30
2022-09-28T00:10:56.241Z,0.47
2022-09-28T00:13:23.821Z,0.40
2022-09-28T00:16:07.762Z,0.30
2022-09-28T00:18:36.201Z,0.30
2022-09-28T00:21:08.591Z,0.40
2022-09-28T00:23:56.413Z,0.30
2022-09-28T00:26:23.847Z,0.27
2022-09-28T00:28:55.013Z,0.33
2022-09-28T00:31:25.215Z,0.30
2022-09-28T00:33:53.411Z,0.50
2022-09-28T00:36:20.783Z,0.37
2022-09-28T00:38:48.174Z,0.50
2022-09-28T00:41:15.828Z,0.30
2022-09-28T00:43:43.197Z,0.37
2022-09-28T00:46:17.950Z,0.30
2022-09-28T00:48:52.553Z,0.30
2022-09-28T00:51:19.896Z,0.30
2022-09-28T00:53:47.484Z,0.27
2022-09-28T00:56:19.108Z,0.30
2022-09-28T00:58:47.989Z,0.30
2022-09-28T01:01:15.580Z,0.40
2022-09-28T01:03:45.615Z,0.30
2022-09-28T01:06:17.860Z,0.27
2022-09-28T01:08:46.445Z,0.30
2022-09-28T01:11:13.737Z,0.30
2022-09-28T01:13:41.534Z,0.20
2022-09-28T01:16:27.654Z,0.40
2022-09-28T01:18:55.024Z,0.37
2022-09-28T01:21:23.382Z,0.33
2022-09-28T01:24:10.427Z,0.30
2022-09-28T01:26:48.855Z,0.80
2022-09-28T01:29:16.356Z,0.50
2022-09-28T01:31:46.874Z,0.40
2022-09-28T01:34:25.535Z,0.40
2022-09-28T01:36:54.824Z,0.30
2022-09-28T01:39:25.736Z,0.30
2022-09-28T01:41:54.447Z,0.27
2022-09-28T01:44:23.173Z,0.50
2022-09-28T01:46:51.562Z,0.43
2022-09-28T01:49:21.702Z,0.20
2022-09-28T01:51:53.451Z,0.20
2022-09-28T01:54:34.900Z,0.30
2022-09-28T01:57:16.150Z,0.30
2022-09-28T01:59:46.038Z,0.30
2022-09-28T02:02:27.511Z,0.40
2022-09-28T02:04:58.497Z,0.43
2022-09-28T02:07:29.361Z,0.40
2022-09-28T02:09:59.738Z,0.30
2022-09-28T02:12:27.062Z,0.20
2022-09-28T02:14:56.162Z,0.23
2022-09-28T02:17:23.394Z,0.20
2022-09-28T02:19:51.492Z,0.30
2022-09-28T02:22:45.028Z,0.30
2022-09-28T02:25:12.409Z,0.33
2022-09-28T02:27:58.317Z,0.30
2022-09-28T02:30:25.702Z,0.40
2022-09-28T02:32:55.064Z,0.30
2022-09-28T02:35:22.629Z,0.50
2022-09-28T02:37:50.504Z,0.30
2022-09-28T02:40:19.615Z,0.30
2022-09-28T02:42:54.516Z,0.30
2022-09-28T02:45:24.714Z,0.20
2022-09-28T02:48:01.258Z,0.40
2022-09-28T02:50:40.499Z,0.23
2022-09-28T02:53:26.551Z,0.40
2022-09-28T02:56:16.635Z,0.23
2022-09-28T02:58:43.937Z,0.20
2022-09-28T03:01:29.984Z,0.17
2022-09-28T03:04:16.074Z,0.40
2022-09-28T03:07:06.172Z,0.20
2022-09-28T03:09:34.608Z,0.30
2022-09-28T03:12:05.738Z,0.30
2022-09-28T03:14:33.095Z,0.30
2022-09-28T03:17:00.503Z,0.33
2022-09-28T03:19:37.189Z,0.30
2022-09-28T03:22:05.707Z,0.30
2022-09-28T03:24:33.014Z,0.50
2022-09-28T03:27:00.370Z,0.30
2022-09-28T03:29:31.391Z,0.23
2022-09-28T03:31:58.772Z,0.40
2022-09-28T03:34:26.171Z,0.43
2022-09-28T03:36:53.498Z,0.50
2022-09-28T03:39:20.731Z,0.20
2022-09-28T03:41:48.012Z,0.30
2022-09-28T03:44:15.360Z,0.50
2022-09-28T03:46:42.605Z,0.30
2022-09-28T03:49:10.314Z,0.30
2022-09-28T03:51:37.656Z,0.50
2022-09-28T03:54:05.189Z,0.40
2022-09-28T03:56:32.531Z,0.40
2022-09-28T03:58:59.874Z,0.40
2022-09-28T04:01:27.302Z,0.47
2022-09-28T04:03:58.207Z,0.33
2022-09-28T04:06:26.014Z,0.47
2022-09-28T04:08:53.589Z,0.30
2022-09-28T04:11:21.104Z,0.40
2022-09-28T04:13:50.070Z,0.43
2022-09-28T04:16:18.654Z,0.37
2022-09-28T04:18:47.165Z,0.50
2022-09-28T04:21:16.150Z,0.40
2022-09-28T04:23:43.436Z,0.53
2022-09-28T04:26:20.309Z,0.60
2022-09-28T04:29:06.991Z,0.60
2022-09-28T04:31:45.890Z,0.50
2022-09-28T04:34:14.951Z,0.40
2022-09-28T04:36:43.886Z,0.40
2022-09-28T04:39:12.226Z,0.50
2022-09-28T04:41:39.603Z,0.50
2022-09-28T04:44:07.059Z,0.40
2022-09-28T04:46:34.440Z,0.40
2022-09-28T04:49:01.855Z,0.50
2022-09-28T04:51:31.709Z,0.40
2022-09-28T04:53:59.139Z,0.40
2022-09-28T04:56:26.516Z,0.40
2022-09-28T04:58:54.004Z,0.30
2022-09-28T05:01:23.872Z,0.43
2022-09-28T05:03:51.345Z,0.50
2022-09-28T05:06:18.784Z,0.60
2022-09-28T05:08:49.052Z,0.60
2022-09-28T05:11:16.505Z,0.67
2022-09-28T05:13:45.575Z,0.50
2022-09-28T05:16:14.142Z,0.47
2022-09-28T05:18:41.497Z,0.47
2022-09-28T05:21:15.766Z,0.43
2022-09-28T05:23:47.357Z,0.40
2022-09-28T05:26:15.264Z,0.70
2022-09-28T05:28:44.983Z,0.50
2022-09-28T05:31:12.484Z,0.47
2022-09-28T05:33:39.829Z,0.47
2022-09-28T05:36:11.015Z,0.40
2022-09-28T05:38:38.505Z,0.60
2022-09-28T05:41:06.765Z,0.43
2022-09-28T05:43:34.535Z,0.50
2022-09-28T05:46:01.954Z,0.40
2022-09-28T05:48:29.813Z,0.80
2022-09-28T05:50:58.754Z,0.60
2022-09-28T05:53:26.359Z,0.50
2022-09-28T05:55:53.737Z,0.47
2022-09-28T05:58:21.806Z,0.40
2022-09-28T06:00:54.994Z,0.60
2022-09-28T06:03:22.369Z,0.63
2022-09-28T06:05:50.951Z,0.57
2022-09-28T06:08:18.365Z,0.60
2022-09-28T06:10:45.725Z,0.43
2022-09-28T06:13:13.128Z,0.50
2022-09-28T06:15:42.569Z,0.50
2022-09-28T06:18:11.495Z,0.40
2022-09-28T06:20:42.990Z,0.43
2022-09-28T06:23:10.779Z,0.40
2022-09-28T06:25:38.401Z,0.50
2022-09-28T06:28:06.905Z,0.60
2022-09-28T06:30:38.251Z,1.57
2022-09-28T06:33:06.694Z,1.90
2022-09-28T06:35:34.006Z,1.10
2022-09-28T06:38:01.634Z,2.23
2022-09-28T06:40:29.430Z,2.53
2022-09-28T06:42:57.778Z,2.50
2022-09-28T06:45:25.716Z,4.03
2022-09-28T06:47:56.769Z,3.40
2022-09-28T06:50:25.068Z,3.23
2022-09-28T06:52:53.385Z,2.67
2022-09-28T06:55:21.460Z,2.20
2022-09-28T06:57:48.893Z,1.30
2022-09-28T07:00:16.361Z,2.80
2022-09-28T07:02:43.753Z,2.57
2022-09-28T07:05:13.997Z,1.47
2022-09-28T07:07:44.798Z,1.00
2022-09-28T07:10:12.958Z,0.90
2022-09-28T07:12:40.625Z,0.70
2022-09-28T07:15:08.415Z,0.73
2022-09-28T07:17:48.181Z,0.77
2022-09-28T07:20:22.501Z,1.30
2022-09-28T07:22:53.475Z,1.07
2022-09-28T07:25:20.937Z,0.83
2022-09-28T07:27:48.307Z,0.67
2022-09-28T07:30:15.825Z,0.80
2022-09-28T07:32:43.262Z,0.90
2022-09-28T07:35:10.838Z,0.50
2022-09-28T07:37:38.276Z,0.70
2022-09-28T07:40:24.863Z,0.70
2022-09-28T07:42:52.295Z,0.83
2022-09-28T07:45:25.416Z,0.40
2022-09-28T07:47:56.147Z,0.40
2022-09-28T07:50:23.418Z,0.30
2022-09-28T07:52:50.856Z,0.40
2022-09-28T07:55:18.216Z,0.60
2022-09-28T07:57:48.198Z,0.60
2022-09-28T08:00:15.739Z,0.40
2022-09-28T08:02:43.140Z,0.47
2022-09-28T08:05:11.181Z,0.50
2022-09-28T08:07:38.503Z,0.40
2022-09-28T08:10:06.220Z,0.60
2022-09-28T08:12:33.530Z,0.37
2022-09-28T08:15:00.897Z,0.40
2022-09-28T08:17:28.356Z,0.30
2022-09-28T08:20:14.127Z,0.30
2022-09-28T08:22:41.412Z,0.63
2022-09-28T08:25:08.878Z,0.30
2022-09-28T08:27:36.242Z,0.40
2022-09-28T08:30:03.787Z,0.40
2022-09-28T08:32:32.974Z,0.37
2022-09-28T08:35:00.379Z,0.43
2022-09-28T08:37:27.768Z,0.30
2022-09-28T08:39:55.108Z,0.40
2022-09-28T08:42:41.189Z,0.50
2022-09-28T08:45:17.850Z,0.53
2022-09-28T08:48:06.595Z,0.50
2022-09-28T08:50:34.811Z,0.40
2022-09-28T08:53:25.065Z,0.33
2022-09-28T08:55:52.673Z,0.30
2022-09-28T08:58:28.480Z,0.47
2022-09-28T09:00:55.853Z,0.30
2022-09-28T09:03:29.092Z,0.40
2022-09-28T09:05:56.368Z,0.50
2022-09-28T09:08:26.700Z,0.27
2022-09-28T09:10:57.964Z,0.20
2022-09-28T09:13:31.610Z,0.30
2022-09-28T09:16:14.742Z,0.30
2022-09-28T09:19:15.303Z,0.30
2022-09-28T09:21:46.496Z,0.50
2022-09-28T09:24:27.090Z,0.30
2022-09-28T09:27:14.609Z,0.27
2022-09-28T09:30:00.912Z,0.20
2022-09-28T09:32:53.464Z,0.40
2022-09-28T09:35:31.488Z,0.20
2022-09-28T09:38:07.148Z,0.30
2022-09-28T09:40:34.536Z,0.30
2022-09-28T09:43:08.453Z,0.30
2022-09-28T09:45:41.988Z,0.40
2022-09-28T09:48:16.102Z,0.43
2022-09-28T09:50:52.020Z,0.33
2022-09-28T09:53:22.047Z,0.30
2022-09-28T09:55:54.876Z,0.40
2022-09-28T09:58:27.420Z,0.30
2022-09-28T10:00:57.011Z,0.50
2022-09-28T10:03:25.926Z,0.20
2022-09-28T10:05:59.807Z,0.20
2022-09-28T10:08:27.893Z,0.20
2022-09-28T10:10:57.631Z,0.30
2022-09-28T10:13:24.985Z,0.30
2022-09-28T10:15:52.946Z,0.33
2022-09-28T10:18:21.467Z,0.30
2022-09-28T10:20:52.138Z,0.40
2022-09-28T10:23:25.600Z,0.60
2022-09-28T10:25:54.860Z,0.40
2022-09-28T10:28:34.695Z,0.20
2022-09-28T10:31:22.122Z,0.20
2022-09-28T10:33:49.554Z,0.23
2022-09-28T10:36:16.937Z,0.40
2022-09-28T10:38:48.592Z,0.30
2022-09-28T10:41:17.193Z,1.00
2022-09-28T10:44:08.904Z,0.77
2022-09-28T10:46:36.891Z,0.20
2022-09-28T10:49:04.169Z,0.30
2022-09-28T10:51:45.192Z,0.40
2022-09-28T10:54:16.874Z,0.20
2022-09-28T10:56:44.779Z,0.50
2022-09-28T10:59:30.436Z,0.30
2022-09-28T11:01:59.849Z,0.33
2022-09-28T11:04:35.182Z,0.30
2022-09-28T11:07:02.679Z,0.33
2022-09-28T11:09:34.713Z,0.50
2022-09-28T11:12:03.997Z,0.30
2022-09-28T11:14:31.380Z,0.20
2022-09-28T11:17:17.223Z,0.27
2022-09-28T11:19:44.661Z,0.30
2022-09-28T11:22:42.398Z,0.20
2022-09-28T11:25:28.059Z,0.50
2022-09-28T11:27:55.585Z,0.20
2022-09-28T11:30:27.584Z,0.30
2022-09-28T11:33:01.683Z,0.20
2022-09-28T11:35:37.621Z,0.30
2022-09-28T11:38:11.844Z,0.20
2022-09-28T11:40:51.280Z,0.30
2022-09-28T11:43:38.758Z,0.20
2022-09-28T11:46:21.484Z,0.30
2022-09-28T11:48:54.921Z,0.20
2022-09-28T11:51:25.317Z,0.30
2022-09-28T11:54:04.155Z,0.30
2022-09-28T11:56:49.125Z,0.30
2022-09-28T11:59:22.448Z,0.20
2022-09-28T12:01:53.410Z,0.30
2022-09-28T12:04:36.935Z,0.30
2022-09-28T12:07:17.078Z,0.30
2022-09-28T12:09:47.397Z,0.20
2022-09-28T12:12:22.598Z,0.30
2022-09-28T12:14:52.717Z,0.30
2022-09-28T12:17:23.543Z,0.40
2022-09-28T12:20:14.022Z,0.30
2022-09-28T12:23:04.589Z,0.40
2022-09-28T12:25:35.832Z,0.30
2022-09-28T12:28:08.842Z,0.20
2022-09-28T12:30:37.739Z,0.50
2022-09-28T12:33:09.439Z,0.40
2022-09-28T12:35:55.530Z,0.30
2022-09-28T12:38:41.198Z,0.40
2022-09-28T12:41:24.142Z,0.37
2022-09-28T12:44:11.669Z,0.60
2022-09-28T12:47:06.137Z,0.30
2022-09-28T12:50:27.134Z,0.30
2022-09-28T12:55:28.551Z,0.20
2022-09-28T12:58:05.075Z,0.20
2022-09-28T13:01:08.530Z,0.40
2022-09-28T13:03:35.871Z,0.30
2022-09-28T13:06:32.466Z,0.23
2022-09-28T13:09:04.051Z,0.20
2022-09-28T13:11:41.294Z,0.30
2022-09-28T13:14:20.428Z,0.30
2022-09-28T13:17:05.809Z,0.30
2022-09-28T13:19:45.217Z,0.20
2022-09-28T13:22:21.508Z,0.60
2022-09-28T13:24:49.644Z,0.30
2022-09-28T13:27:21.258Z,0.20
2022-09-28T13:29:51.202Z,0.20
2022-09-28T13:32:19.237Z,0.37
2022-09-28T13:34:50.598Z,0.40
2022-09-28T13:37:18.168Z,0.43
2022-09-28T13:39:45.500Z,0.40
2022-09-28T13:42:22.066Z,0.33
2022-09-28T13:45:09.625Z,0.30
2022-09-28T13:47:42.722Z,0.40
2022-09-28T13:50:18.867Z,0.40
2022-09-28T13:52:47.905Z,0.40
2022-09-28T13:55:21.672Z,0.40
2022-09-28T13:57:52.920Z,0.40
2022-09-28T14:00:31.303Z,0.47
2022-09-28T14:03:04.386Z,0.50
2022-09-28T14:05:38.334Z,0.40
2022-09-28T14:08:12.929Z,0.60
2022-09-28T14:10:49.890Z,0.57
2022-09-28T14:13:35.836Z,0.60
2022-09-28T14:16:23.375Z,0.47
2022-09-28T14:18:53.551Z,0.60
2022-09-28T14:21:33.050Z,0.70
2022-09-28T14:24:15.455Z,0.60
2022-09-28T14:26:48.871Z,0.70
2022-09-28T14:29:28.504Z,0.70
2022-09-28T14:31:58.238Z,0.50
2022-09-28T14:34:34.382Z,0.70
2022-09-28T14:37:22.046Z,0.70
2022-09-28T14:40:08.443Z,0.80
2022-09-28T14:42:35.830Z,0.80
2022-09-28T14:45:06.726Z,1.20
2022-09-28T14:47:43.228Z,0.63
2022-09-28T14:50:26.910Z,0.50
2022-09-28T14:52:59.936Z,0.40
2022-09-28T14:55:29.158Z,0.50
2022-09-28T14:57:58.582Z,0.40
2022-09-28T15:00:29.317Z,0.40
2022-09-28T15:03:00.378Z,0.30
2022-09-28T15:05:33.450Z,0.30
2022-09-28T15:08:01.895Z,0.20
2022-09-28T15:10:32.366Z,0.20
2022-09-28T15:13:05.385Z,0.20
2022-09-28T15:15:34.911Z,0.30
2022-09-28T15:18:23.355Z,0.17
2022-09-28T15:20:50.822Z,0.20
2022-09-28T15:23:24.820Z,0.23
2022-09-28T15:25:52.841Z,0.30
2022-09-28T15:28:23.865Z,0.20
2022-09-28T15:30:51.755Z,0.37
2022-09-28T15:33:44.971Z,0.20
2022-09-28T15:36:22.482Z,0.20
2022-09-28T15:39:01.002Z,0.30
2022-09-28T15:41:29.304Z,0.27
2022-09-28T15:44:29.687Z,0.33
2022-09-28T15:47:09.293Z,0.30
2022-09-28T15:49:39.236Z,0.40
2022-09-28T15:52:06.717Z,0.60
2022-09-28T15:54:43.290Z,0.30
2022-09-28T15:57:29.504Z,0.40
2022-09-28T15:59:57.117Z,0.30
2022-09-28T16:02:25.725Z,0.30
2022-09-28T16:04:55.290Z,0.20
2022-09-28T16:07:31.532Z,0.20
2022-09-28T16:10:19.129Z,0.30
2022-09-28T16:12:49.108Z,0.40
2022-09-28T16:15:18.358Z,0.30
2022-09-28T16:17:50.473Z,0.20
2022-09-28T16:20:27.812Z,0.23
2022-09-28T16:22:55.449Z,0.30
2022-09-28T16:25:24.713Z,0.20
2022-09-28T16:27:53.519Z,0.30
2022-09-28T16:30:24.371Z,0.40
2022-09-28T16:32:56.539Z,0.20
2022-09-28T16:35:25.833Z,0.20
2022-09-28T16:38:05.690Z,0.77
2022-09-28T16:40:33.522Z,0.20
2022-09-28T16:43:03.370Z,0.20
2022-09-28T16:45:30.857Z,0.23
2022-09-28T16:47:58.555Z,0.20
2022-09-28T16:50:26.392Z,0.30
2022-09-28T16:53:22.374Z,0.20
2022-09-28T16:55:50.055Z,0.20
2022-09-28T16:58:18.674Z,0.20
2022-09-28T17:00:46.053Z,0.20
2022-09-28T17:03:18.454Z,0.10
2022-09-28T17:05:46.394Z,0.10
2022-09-28T17:08:17.538Z,0.20
2022-09-28T17:11:13.839Z,0.10
2022-09-28T17:13:43.743Z,0.20
2022-09-28T17:16:12.728Z,0.30
2022-09-28T17:18:40.299Z,0.20
2022-09-28T17:21:10.948Z,0.20
2022-09-28T17:23:38.387Z,0.13
2022-09-28T17:26:06.252Z,0.10
2022-09-28T17:28:34.506Z,0.17
2022-09-28T17:31:01.908Z,0.10
2022-09-28T17:33:29.855Z,0.20
2022-09-28T17:36:01.289Z,0.10
2022-09-28T17:38:28.965Z,0.20
2022-09-28T17:40:56.404Z,0.30
2022-09-28T17:43:23.820Z,0.17
2022-09-28T17:45:51.305Z,0.10
2022-09-28T17:48:22.946Z,0.20
2022-09-28T17:50:50.741Z,0.23
2022-09-28T17:53:18.087Z,0.20
2022-09-28T17:55:45.443Z,0.17
2022-09-28T17:58:17.117Z,0.30
2022-09-28T18:00:44.943Z,0.20
2022-09-28T18:03:22.747Z,0.30
2022-09-28T18:05:52.739Z,0.30
2022-09-28T18:08:21.417Z,0.20
2022-09-28T18:10:48.771Z,0.40
2022-09-28T18:13:16.110Z,0.20
2022-09-28T18:15:43.489Z,0.20
2022-09-28T18:18:12.682Z,0.30
2022-09-28T18:20:41.547Z,0.40
2022-09-28T18:23:08.927Z,0.27
2022-09-28T18:25:39.624Z,0.20
2022-09-28T18:28:06.943Z,0.30
2022-09-28T18:30:34.297Z,0.20
2022-09-28T18:33:01.566Z,0.33
2022-09-28T18:35:28.901Z,0.27
2022-09-28T18:37:56.288Z,0.23
2022-09-28T18:40:23.569Z,0.20
2022-09-28T18:42:51.863Z,0.40
2022-09-28T18:45:19.394Z,0.37
2022-09-28T18:47:46.937Z,0.37
2022-09-28T18:50:15.593Z,0.40
2022-09-28T18:52:43.655Z,0.40
2022-09-28T18:55:11.661Z,0.33
2022-09-28T18:57:40.495Z,0.50
2022-09-28T19:00:09.453Z,0.50
2022-09-28T19:02:37.329Z,0.43
2022-09-28T19:05:07.945Z,0.50
2022-09-28T19:07:35.345Z,0.40
2022-09-28T19:10:02.834Z,0.40
2022-09-28T19:12:30.156Z,0.37
2022-09-28T19:14:59.669Z,0.70
2022-09-28T19:17:27.085Z,0.70
2022-09-28T19:19:54.443Z,1.23
2022-09-28T19:22:21.851Z,3.97
2022-09-28T19:24:49.248Z,1.50
2022-09-28T19:27:16.689Z,1.20
2022-09-28T19:29:44.081Z,1.43
2022-09-28T19:32:12.699Z,1.57
2022-09-28T19:34:40.055Z,0.40
2022-09-28T19:37:10.403Z,0.50
2022-09-28T19:39:37.721Z,0.60
2022-09-28T19:42:05.227Z,0.70
2022-09-28T19:44:35.738Z,0.70
2022-09-28T19:47:06.828Z,0.50
2022-09-28T19:49:38.208Z,0.37
2022-09-28T19:52:13.445Z,0.43
2022-09-28T19:54:57.926Z,0.60
2022-09-28T19:57:30.682Z,0.40
2022-09-28T20:00:02.362Z,0.40
2022-09-28T20:02:30.503Z,0.40
2022-09-28T20:04:58.020Z,0.50
2022-09-28T20:07:25.390Z,0.40
2022-09-28T20:09:52.674Z,0.50
2022-09-28T20:12:20.124Z,0.50
2022-09-28T20:14:47.613Z,0.40
2022-09-28T20:17:14.993Z,0.60
2022-09-28T20:19:42.348Z,0.60
2022-09-28T20:22:09.740Z,0.50
2022-09-28T20:24:37.047Z,0.30
2022-09-28T20:27:04.393Z,0.43
2022-09-28T20:29:33.389Z,0.40
2022-09-28T20:32:01.054Z,0.47
2022-09-28T20:34:28.455Z,0.40
2022-09-28T20:36:56.118Z,0.40
2022-09-28T20:39:23.502Z,0.73
2022-09-28T20:41:50.871Z,0.90
2022-09-28T20:44:18.215Z,0.50
2022-09-28T20:46:45.780Z,0.50
2022-09-28T20:49:13.160Z,0.40
2022-09-28T20:51:40.493Z,0.43
2022-09-28T20:54:07.856Z,0.40
2022-09-28T20:56:39.343Z,0.43
2022-09-28T20:59:11.077Z,0.50
2022-09-28T21:01:38.520Z,0.57
2022-09-28T21:04:06.723Z,0.60
2022-09-28T21:06:35.270Z,0.40
2022-09-28T21:09:02.770Z,0.60
2022-09-28T21:11:30.308Z,0.47
2022-09-28T21:13:59.028Z,0.73
2022-09-28T21:16:27.494Z,0.50
2022-09-28T21:18:54.817Z,0.50
2022-09-28T21:21:22.504Z,0.50
2022-09-28T21:23:53.175Z,0.40
2022-09-28T21:26:25.149Z,0.67
2022-09-28T21:28:56.554Z,0.40
2022-09-28T21:31:28.866Z,0.60
2022-09-28T21:33:57.426Z,0.40
2022-09-28T21:36:24.916Z,0.60
2022-09-28T21:38:52.286Z,0.60
2022-09-28T21:41:19.673Z,0.70
2022-09-28T21:43:47.015Z,0.60
2022-09-28T21:46:14.517Z,0.60
2022-09-28T21:48:41.904Z,0.70
2022-09-28T21:51:09.737Z,1.10
2022-09-28T21:53:37.855Z,1.20
2022-09-28T21:56:06.938Z,0.90
2022-09-28T21:58:35.453Z,0.60
2022-09-28T22:01:15.026Z,1.30
2022-09-28T22:03:44.029Z,1.60
2022-09-28T22:06:11.774Z,1.10
2022-09-28T22:08:39.455Z,0.80
2022-09-28T22:11:08.380Z,1.03
2022-09-28T22:13:37.036Z,0.77
2022-09-28T22:16:04.451Z,0.83
2022-09-28T22:18:32.678Z,0.90
2022-09-28T22:21:00.548Z,0.80
2022-09-28T22:23:28.447Z,0.90
2022-09-28T22:26:03.323Z,0.83
2022-09-28T22:28:30.672Z,1.03
2022-09-28T22:30:58.528Z,0.90
2022-09-28T22:33:26.151Z,0.83
2022-09-28T22:35:53.644Z,0.70
2022-09-28T22:38:21.266Z,0.70
2022-09-28T22:40:49.271Z,0.60
2022-09-28T22:43:16.910Z,0.90
2022-09-28T22:45:44.292Z,0.90
2022-09-28T22:48:11.766Z,1.00
2022-09-28T22:50:39.104Z,1.00
2022-09-28T22:53:07.147Z,0.77
2022-09-28T22:55:34.533Z,0.60
2022-09-28T22:58:04.822Z,1.03
2022-09-28T23:00:32.158Z,0.90
2022-09-28T23:02:59.515Z,1.00
2022-09-28T23:05:26.942Z,0.90
2022-09-28T23:07:54.277Z,1.17
2022-09-28T23:10:21.508Z,1.10
2022-09-28T23:12:48.816Z,1.00
2022-09-28T23:15:16.218Z,1.10
2022-09-28T23:17:43.552Z,1.10
2022-09-28T23:20:10.823Z,0.90
2022-09-28T23:22:38.151Z,1.40
2022-09-28T23:25:05.687Z,2.10
2022-09-28T23:27:33.054Z,1.40
2022-09-28T23:30:00.424Z,1.30
2022-09-28T23:32:31.881Z,1.40
2022-09-28T23:34:59.462Z,1.37
2022-09-28T23:37:26.789Z,1.30
2022-09-28T23:39:54.536Z,1.30
2022-09-28T23:42:21.865Z,1.33
2022-09-28T23:44:49.163Z,1.60
2022-09-28T23:47:16.483Z,1.67
2022-09-28T23:49:43.804Z,1.50
2022-09-28T23:52:11.616Z,1.60
2022-09-28T23:54:38.950Z,1.03
2022-09-28T23:57:06.301Z,1.17
2022-09-28T23:59:33.597Z,0.87
